createdAt,value
2022-09-15T00:01:20.404Z,97952.56
2022-09-15T00:03:48.749Z,97955.91
2022-09-15T00:06:16.852Z,97957.13
2022-09-15T00:08:46.132Z,97938.22
2022-09-15T00:11:18.382Z,97942.16
2022-09-15T00:13:47.394Z,97945.50
2022-09-15T00:16:16.420Z,97930.50
2022-09-15T00:18:45.482Z,97932.34
2022-09-15T00:21:16.335Z,97925.75
2022-09-15T00:23:45.681Z,97926.34
2022-09-15T00:26:16.341Z,97923.22
2022-09-15T00:28:45.311Z,97917.81
2022-09-15T00:31:15.609Z,97911.16
2022-09-15T00:33:43.901Z,97914.25
2022-09-15T00:36:14.262Z,97911.47
2022-09-15T00:38:42.747Z,97909.03
2022-09-15T00:41:14.445Z,97916.66
2022-09-15T00:43:49.122Z,97913.31
2022-09-15T00:46:19.595Z,97924.72
2022-09-15T00:48:51.933Z,97913.84
2022-09-15T00:51:24.001Z,97907.00
2022-09-15T00:53:53.715Z,97906.84
2022-09-15T00:56:24.558Z,97906.41
2022-09-15T00:58:57.412Z,97903.84
2022-09-15T01:01:28.606Z,97908.72
2022-09-15T01:03:57.137Z,97909.75
2022-09-15T01:06:28.718Z,97897.28
2022-09-15T01:09:02.805Z,97901.66
2022-09-15T01:11:33.134Z,97900.56
2022-09-15T01:14:02.053Z,97897.75
2022-09-15T01:16:50.027Z,97895.88
2022-09-15T01:19:45.637Z,97890.97
2022-09-15T01:22:28.926Z,97898.19
2022-09-15T01:25:07.563Z,97888.00
2022-09-15T01:28:14.044Z,97881.94
2022-09-15T01:30:50.288Z,97890.03
2022-09-15T01:33:27.957Z,97892.31
2022-09-15T01:36:05.836Z,97891.53
2022-09-15T01:38:46.930Z,97899.28
2022-09-15T01:41:18.350Z,97904.22
2022-09-15T01:43:52.941Z,97892.38
2022-09-15T01:46:25.537Z,97894.22
2022-09-15T01:48:56.238Z,97893.59
2022-09-15T01:51:26.846Z,97895.63
2022-09-15T01:53:57.533Z,97897.75
2022-09-15T01:56:25.435Z,97896.06
2022-09-15T01:58:53.613Z,97903.19
2022-09-15T02:01:29.829Z,97907.34
2022-09-15T02:04:03.540Z,97902.81
2022-09-15T02:06:37.428Z,97904.84
2022-09-15T02:09:13.611Z,97905.69
2022-09-15T02:11:52.287Z,97907.72
2022-09-15T02:14:33.902Z,97895.31
2022-09-15T02:17:03.664Z,97903.38
2022-09-15T02:19:37.220Z,97895.88
2022-09-15T02:22:11.183Z,97895.44
2022-09-15T02:24:51.920Z,97906.41
2022-09-15T02:27:24.252Z,97897.94
2022-09-15T02:29:56.372Z,97898.69
2022-09-15T02:32:29.273Z,97889.09
2022-09-15T02:34:59.691Z,97902.25
2022-09-15T02:37:28.782Z,97911.97
2022-09-15T02:39:59.101Z,97897.28
2022-09-15T02:42:28.846Z,97894.41
2022-09-15T02:44:57.200Z,97888.22
2022-09-15T02:47:28.322Z,97896.47
2022-09-15T02:49:57.182Z,97901.28
2022-09-15T02:52:25.465Z,97905.00
2022-09-15T02:54:54.450Z,97899.81
2022-09-15T02:57:22.348Z,97901.03
2022-09-15T03:00:07.922Z,97903.91
2022-09-15T03:02:37.470Z,97905.13
2022-09-15T03:05:05.991Z,97909.47
2022-09-15T03:07:33.948Z,97912.16
2022-09-15T03:10:01.827Z,97913.19
2022-09-15T03:12:29.843Z,97906.53
2022-09-15T03:14:57.737Z,97904.47
2022-09-15T03:17:25.708Z,97916.06
2022-09-15T03:19:54.993Z,97917.13
2022-09-15T03:22:22.878Z,97920.81
2022-09-15T03:24:51.496Z,97923.78
2022-09-15T03:27:19.396Z,97918.34
2022-09-15T03:29:47.408Z,97927.88
2022-09-15T03:32:15.526Z,97928.06
2022-09-15T03:34:43.781Z,97926.41
2022-09-15T03:37:13.159Z,97925.56
2022-09-15T03:39:42.223Z,97917.88
2022-09-15T03:42:10.285Z,97923.84
2022-09-15T03:44:38.220Z,97914.47
2022-09-15T03:47:06.563Z,97914.03
2022-09-15T03:49:34.550Z,97918.78
2022-09-15T03:52:02.902Z,97919.78
2022-09-15T03:54:32.533Z,97918.31
2022-09-15T03:57:00.406Z,97919.53
2022-09-15T03:59:28.323Z,97919.75
2022-09-15T04:01:56.316Z,97923.00
2022-09-15T04:04:24.230Z,97918.63
2022-09-15T04:06:52.118Z,97928.19
2022-09-15T04:09:21.527Z,97920.03
2022-09-15T04:11:50.785Z,97921.81
2022-09-15T04:14:18.685Z,97916.25
2022-09-15T04:16:46.663Z,97911.44
2022-09-15T04:19:15.007Z,97909.13
2022-09-15T04:21:42.930Z,97908.63
2022-09-15T04:24:10.825Z,97902.22
2022-09-15T04:26:39.228Z,97892.78
2022-09-15T04:29:14.203Z,97900.97
2022-09-15T04:31:42.170Z,97885.47
2022-09-15T04:34:10.326Z,97897.22
2022-09-15T04:36:38.366Z,97887.03
2022-09-15T04:39:07.252Z,97892.81
2022-09-15T04:41:35.217Z,97886.03
2022-09-15T04:44:03.672Z,97882.41
2022-09-15T04:46:32.969Z,97888.53
2022-09-15T04:49:01.011Z,97890.19
2022-09-15T04:51:29.007Z,97894.94
2022-09-15T04:53:56.909Z,97892.03
2022-09-15T04:56:26.971Z,97886.03
2022-09-15T04:59:02.491Z,97892.03
2022-09-15T05:01:35.389Z,97893.47
2022-09-15T05:04:05.101Z,97893.47
2022-09-15T05:06:34.920Z,97896.06
2022-09-15T05:09:09.798Z,97887.19
2022-09-15T05:11:38.962Z,97890.22
2022-09-15T05:14:08.153Z,97881.50
2022-09-15T05:16:37.517Z,97896.31
2022-09-15T05:19:05.737Z,97885.31
2022-09-15T05:21:34.004Z,97896.00
2022-09-15T05:24:02.232Z,97900.97
2022-09-15T05:26:31.154Z,97905.25
2022-09-15T05:28:59.430Z,97912.78
2022-09-15T05:31:30.881Z,97914.81
2022-09-15T05:34:01.902Z,97920.94
2022-09-15T05:36:30.053Z,97911.59
2022-09-15T05:38:58.324Z,97921.41
2022-09-15T05:41:28.279Z,97920.13
2022-09-15T05:43:58.002Z,97922.72
2022-09-15T05:46:27.359Z,97927.06
2022-09-15T05:48:57.956Z,97926.78
2022-09-15T05:51:27.723Z,97920.38
2022-09-15T05:53:55.658Z,97923.19
2022-09-15T05:56:24.049Z,97916.41
2022-09-15T05:58:52.279Z,97923.91
2022-09-15T06:01:22.337Z,97930.97
2022-09-15T06:03:50.529Z,97923.91
2022-09-15T06:06:18.502Z,97929.75
2022-09-15T06:08:54.202Z,97921.59
2022-09-15T06:11:27.168Z,97927.25
2022-09-15T06:13:55.197Z,97927.63
2022-09-15T06:16:26.308Z,97929.28
2022-09-15T06:18:55.573Z,97926.59
2022-09-15T06:21:25.456Z,97934.38
2022-09-15T06:23:56.127Z,97909.06
2022-09-15T06:26:24.795Z,97937.44
2022-09-15T06:28:54.591Z,97941.22
2022-09-15T06:31:23.733Z,97936.06
2022-09-15T06:33:54.082Z,97935.78
2022-09-15T06:36:24.393Z,97941.34
2022-09-15T06:38:52.577Z,97943.00
2022-09-15T06:41:22.605Z,97956.88
2022-09-15T06:43:50.913Z,97947.66
2022-09-15T06:46:20.978Z,97959.38
2022-09-15T06:48:49.315Z,97952.47
2022-09-15T06:51:18.875Z,97962.72
2022-09-15T06:53:47.624Z,97966.84
2022-09-15T06:56:16.754Z,97971.44
2022-09-15T06:58:48.970Z,97966.94
2022-09-15T07:01:22.498Z,97966.63
2022-09-15T07:03:51.029Z,97976.66
2022-09-15T07:06:20.147Z,97971.44
2022-09-15T07:08:48.178Z,97964.03
2022-09-15T07:11:16.503Z,97962.66
2022-09-15T07:13:45.798Z,97966.91
2022-09-15T07:16:14.601Z,97970.09
2022-09-15T07:18:43.644Z,97972.13
2022-09-15T07:21:13.990Z,97957.00
2022-09-15T07:23:42.345Z,97971.25
2022-09-15T07:26:12.870Z,97973.22
2022-09-15T07:28:43.116Z,97977.69
2022-09-15T07:31:14.431Z,97972.94
2022-09-15T07:33:42.749Z,97979.31
2022-09-15T07:36:11.709Z,97975.53
2022-09-15T07:38:41.513Z,97982.22
2022-09-15T07:41:11.324Z,97977.94
2022-09-15T07:43:39.702Z,97987.03
2022-09-15T07:46:08.041Z,97981.84
2022-09-15T07:48:37.408Z,97987.69
2022-09-15T07:51:05.441Z,97981.00
2022-09-15T07:53:33.412Z,97991.56
2022-09-15T07:56:01.301Z,97985.63
2022-09-15T07:58:29.717Z,97993.25
2022-09-15T08:01:02.754Z,97985.63
2022-09-15T08:03:30.846Z,97995.84
2022-09-15T08:06:01.085Z,97997.56
2022-09-15T08:08:30.153Z,98001.47
2022-09-15T08:10:58.166Z,97992.88
2022-09-15T08:13:26.205Z,97996.56
2022-09-15T08:15:54.147Z,98003.44
2022-09-15T08:18:22.134Z,98003.44
2022-09-15T08:20:50.015Z,98011.41
2022-09-15T08:23:19.329Z,98012.81
2022-09-15T08:25:47.776Z,98008.38
2022-09-15T08:28:15.705Z,98026.72
2022-09-15T08:30:43.618Z,98020.91
2022-09-15T08:33:11.759Z,98023.59
2022-09-15T08:35:39.615Z,98020.44
2022-09-15T08:38:07.488Z,98025.00
2022-09-15T08:40:38.931Z,98019.97
2022-09-15T08:43:14.775Z,98023.47
2022-09-15T08:45:50.639Z,98020.53
2022-09-15T08:48:21.572Z,98007.50
2022-09-15T08:50:53.142Z,98010.28
2022-09-15T08:53:26.456Z,98017.78
2022-09-15T08:55:57.101Z,98015.28
2022-09-15T08:58:27.012Z,98022.53
2022-09-15T09:01:04.266Z,98021.00
2022-09-15T09:03:56.739Z,98023.31
2022-09-15T09:06:41.578Z,98031.97
2022-09-15T09:09:25.875Z,98033.44
2022-09-15T09:12:18.145Z,98035.56
2022-09-15T09:15:01.795Z,98037.03
2022-09-15T09:17:46.465Z,98033.84
2022-09-15T09:20:33.632Z,98032.00
2022-09-15T09:23:05.324Z,98043.50
2022-09-15T09:25:33.328Z,98030.25
2022-09-15T09:28:04.598Z,98035.91
2022-09-15T09:30:34.331Z,98033.63
2022-09-15T09:33:15.870Z,98036.69
2022-09-15T09:35:47.549Z,98037.50
2022-09-15T09:38:33.076Z,98029.41
2022-09-15T09:41:02.500Z,98026.56
2022-09-15T09:43:33.655Z,98029.91
2022-09-15T09:46:02.296Z,98025.59
2022-09-15T09:48:31.211Z,98026.44
2022-09-15T09:50:59.105Z,98025.44
2022-09-15T09:53:32.231Z,98015.13
2022-09-15T09:56:24.370Z,98022.75
2022-09-15T09:58:55.269Z,98011.34
2022-09-15T10:01:25.023Z,98011.91
2022-09-15T10:04:12.682Z,98017.00
2022-09-15T10:06:42.121Z,98008.00
2022-09-15T10:09:14.465Z,98005.06
2022-09-15T10:11:45.033Z,98017.03
2022-09-15T10:14:26.505Z,98003.88
2022-09-15T10:17:02.651Z,98000.47
2022-09-15T10:19:33.767Z,97999.44
2022-09-15T10:22:03.146Z,98005.09
2022-09-15T10:24:34.821Z,97998.91
2022-09-15T10:27:17.414Z,98004.38
2022-09-15T10:29:47.255Z,97994.78
2022-09-15T10:32:25.974Z,97996.88
2022-09-15T10:35:06.584Z,98000.53
2022-09-15T10:37:38.923Z,97991.81
2022-09-15T10:40:35.078Z,97993.38
2022-09-15T10:43:22.501Z,97994.41
2022-09-15T10:46:02.482Z,98004.56
2022-09-15T10:48:43.918Z,97997.22
2022-09-15T10:51:22.977Z,98006.28
2022-09-15T10:54:18.878Z,97996.59
2022-09-15T10:56:50.124Z,97999.72
2022-09-15T10:59:34.895Z,97997.59
2022-09-15T11:02:30.538Z,97996.25
2022-09-15T11:05:22.730Z,97998.03
2022-09-15T11:08:03.276Z,98006.81
2022-09-15T11:10:36.815Z,97998.19
2022-09-15T11:13:10.492Z,98012.53
2022-09-15T11:15:52.091Z,98007.38
2022-09-15T11:18:40.424Z,98012.72
2022-09-15T11:21:21.570Z,98011.69
2022-09-15T11:23:56.691Z,98006.28
2022-09-15T11:26:31.297Z,98007.78
2022-09-15T11:29:06.002Z,98014.34
2022-09-15T11:31:39.521Z,98010.69
2022-09-15T11:34:16.340Z,98017.38
2022-09-15T11:36:48.728Z,98006.31
2022-09-15T11:39:24.044Z,98016.28
2022-09-15T11:41:56.659Z,98022.91
2022-09-15T11:44:29.603Z,98018.28
2022-09-15T11:47:23.472Z,98022.06
2022-09-15T11:49:57.393Z,98031.13
2022-09-15T11:52:45.756Z,98042.22
2022-09-15T11:55:24.379Z,98038.16
2022-09-15T11:57:58.270Z,98038.72
2022-09-15T12:00:26.449Z,98032.63
2022-09-15T12:03:07.321Z,98030.91
2022-09-15T12:05:43.888Z,98045.34
2022-09-15T12:08:18.086Z,98050.81
2022-09-15T12:10:50.258Z,98053.69
2022-09-15T12:13:20.808Z,98039.25
2022-09-15T12:15:49.780Z,98021.03
2022-09-15T12:18:38.975Z,98022.31
2022-09-15T12:21:18.141Z,98031.72
2022-09-15T12:23:53.584Z,98041.28
2022-09-15T12:26:23.846Z,98037.47
2022-09-15T12:28:57.992Z,98050.78
2022-09-15T12:31:32.974Z,98046.75
2022-09-15T12:34:02.959Z,98051.72
2022-09-15T12:36:53.709Z,98041.72
2022-09-15T12:39:38.061Z,98063.34
2022-09-15T12:42:22.228Z,98063.41
2022-09-15T12:44:56.160Z,98062.41
2022-09-15T12:47:31.998Z,98068.88
2022-09-15T12:50:06.183Z,98069.53
2022-09-15T12:52:44.205Z,98073.19
2022-09-15T12:55:22.674Z,98070.78
2022-09-15T12:58:00.212Z,98071.06
2022-09-15T13:00:31.175Z,98071.81
2022-09-15T13:02:59.495Z,98079.88
2022-09-15T13:05:54.883Z,98087.63
2022-09-15T13:08:46.908Z,98088.19
2022-09-15T13:11:18.352Z,98086.88
2022-09-15T13:13:51.107Z,98098.75
2022-09-15T13:16:26.429Z,98097.34
2022-09-15T13:19:12.502Z,98086.09
2022-09-15T13:21:44.478Z,98114.13
2022-09-15T13:24:20.580Z,98116.94
2022-09-15T13:26:52.413Z,98122.16
2022-09-15T13:29:21.309Z,98131.28
2022-09-15T13:31:56.308Z,98130.84
2022-09-15T13:38:12.567Z,98131.84
2022-09-15T13:41:07.046Z,98131.00
2022-09-15T13:43:56.427Z,98125.63
2022-09-15T13:46:39.446Z,98123.13
2022-09-15T13:49:32.880Z,98122.66
2022-09-15T13:52:09.039Z,98120.97
2022-09-15T13:54:36.987Z,98123.53
2022-09-15T13:57:06.351Z,98117.28
2022-09-15T13:59:34.891Z,98112.59
2022-09-15T14:02:09.736Z,98116.59
2022-09-15T14:04:37.817Z,98121.25
2022-09-15T14:07:09.204Z,98112.22
2022-09-15T14:09:50.301Z,98104.03
2022-09-15T14:12:23.796Z,98113.34
2022-09-15T14:14:56.109Z,98111.88
2022-09-15T14:17:27.373Z,98113.06
2022-09-15T14:19:59.624Z,98113.28
2022-09-15T14:22:36.339Z,98114.63
2022-09-15T14:25:11.938Z,98120.56
2022-09-15T14:27:48.341Z,98110.66
2022-09-15T14:30:22.592Z,98112.22
2022-09-15T14:32:56.454Z,98107.88
2022-09-15T14:35:27.235Z,98109.22
2022-09-15T14:37:57.773Z,98092.47
2022-09-15T14:40:30.545Z,98106.94
2022-09-15T14:42:59.947Z,98097.47
2022-09-15T14:46:01.166Z,98103.06
2022-09-15T14:48:28.603Z,98095.34
2022-09-15T14:51:09.803Z,98092.75
2022-09-15T14:53:42.375Z,98096.28
2022-09-15T14:56:32.144Z,98094.50
2022-09-15T14:59:10.763Z,98097.28
2022-09-15T15:01:52.612Z,98097.75
2022-09-15T15:04:27.146Z,98103.47
2022-09-15T15:07:02.769Z,98101.47
2022-09-15T15:09:35.600Z,98103.59
2022-09-15T15:12:14.853Z,98100.53
2022-09-15T15:14:46.274Z,98096.28
2022-09-15T15:17:29.017Z,98092.41
2022-09-15T15:20:02.163Z,98102.16
2022-09-15T15:22:31.373Z,98102.06
2022-09-15T15:24:59.324Z,98100.13
2022-09-15T15:27:41.594Z,98099.84
2022-09-15T15:30:56.259Z,98102.44
2022-09-15T15:33:29.288Z,98100.78
2022-09-15T15:36:06.287Z,98102.59
2022-09-15T15:38:46.418Z,98104.84
2022-09-15T15:41:21.752Z,98118.84
2022-09-15T15:43:57.714Z,98113.66
2022-09-15T15:46:50.314Z,98116.41
2022-09-15T15:49:21.108Z,98118.63
2022-09-15T15:51:49.073Z,98127.00
2022-09-15T15:54:17.117Z,98124.84
2022-09-15T15:56:45.655Z,98125.69
2022-09-15T15:59:15.243Z,98124.38
2022-09-15T16:01:43.633Z,98124.75
2022-09-15T16:04:14.098Z,98135.34
2022-09-15T16:06:47.324Z,98135.66
2022-09-15T16:09:17.831Z,98138.59
2022-09-15T16:11:46.098Z,98135.19
2022-09-15T16:14:16.900Z,98134.09
2022-09-15T16:16:45.480Z,98143.78
2022-09-15T16:19:15.255Z,98134.84
2022-09-15T16:21:43.722Z,98131.16
2022-09-15T16:24:15.161Z,98143.97
2022-09-15T16:26:44.521Z,98142.78
2022-09-15T16:29:12.963Z,98132.56
2022-09-15T16:31:43.035Z,98140.09
2022-09-15T16:34:17.739Z,98148.91
2022-09-15T16:36:45.711Z,98143.69
2022-09-15T16:39:13.649Z,98141.38
2022-09-15T16:41:42.111Z,98143.88
2022-09-15T16:44:18.884Z,98136.00
2022-09-15T16:46:46.981Z,98140.19
2022-09-15T16:49:16.352Z,98141.38
2022-09-15T16:51:44.364Z,98134.69
2022-09-15T16:54:17.851Z,98139.13
2022-09-15T16:56:46.456Z,98135.75
2022-09-15T16:59:14.678Z,98147.84
2022-09-15T17:01:42.683Z,98131.47
2022-09-15T17:04:13.959Z,98142.06
2022-09-15T17:06:43.368Z,98140.19
2022-09-15T17:09:11.413Z,98143.34
2022-09-15T17:11:39.485Z,98149.16
2022-09-15T17:14:07.575Z,98145.69
2022-09-15T17:16:35.567Z,98152.19
2022-09-15T17:19:03.554Z,98132.91
2022-09-15T17:21:31.464Z,98146.34
2022-09-15T17:24:00.799Z,98144.19
2022-09-15T17:26:31.289Z,98145.06
2022-09-15T17:28:59.802Z,98150.63
2022-09-15T17:31:28.168Z,98145.13
2022-09-15T17:33:56.453Z,98143.94
2022-09-15T17:36:24.331Z,98155.69
2022-09-15T17:38:52.370Z,98130.59
2022-09-15T17:41:22.860Z,98153.53
2022-09-15T17:43:52.921Z,98136.44
2022-09-15T17:46:24.031Z,98147.28
2022-09-15T17:48:52.083Z,98161.63
2022-09-15T17:51:20.929Z,98155.28
2022-09-15T17:53:49.267Z,98159.78
2022-09-15T17:56:17.404Z,98160.66
2022-09-15T17:58:47.564Z,98164.00
2022-09-15T18:01:16.820Z,98156.13
2022-09-15T18:03:51.005Z,98169.00
2022-09-15T18:06:20.285Z,98155.28
2022-09-15T18:08:49.912Z,98165.69
2022-09-15T18:11:17.843Z,98173.63
2022-09-15T18:13:47.697Z,98174.31
2022-09-15T18:16:16.029Z,98174.69
2022-09-15T18:18:44.110Z,98172.53
2022-09-15T18:21:24.821Z,98184.78
2022-09-15T18:23:55.233Z,98181.25
2022-09-15T18:26:26.680Z,98172.91
2022-09-15T18:28:57.400Z,98182.44
2022-09-15T18:31:29.028Z,98183.78
2022-09-15T18:33:57.134Z,98193.16
2022-09-15T18:36:26.272Z,98191.84
2022-09-15T18:38:54.300Z,98186.16
2022-09-15T18:41:22.171Z,98180.59
2022-09-15T18:43:50.460Z,98181.78
2022-09-15T18:46:20.447Z,98196.22
2022-09-15T18:48:48.378Z,98198.75
2022-09-15T18:51:24.175Z,98199.06
2022-09-15T18:53:57.515Z,98195.72
2022-09-15T18:56:26.422Z,98202.72
2022-09-15T18:58:56.963Z,98207.44
2022-09-15T19:01:26.880Z,98205.09
2022-09-15T19:03:57.183Z,98207.13
2022-09-15T19:06:25.389Z,98205.97
2022-09-15T19:08:53.508Z,98214.34
2022-09-15T19:11:21.481Z,98219.38
2022-09-15T19:13:50.669Z,98220.56
2022-09-15T19:16:22.980Z,98218.75
2022-09-15T19:18:57.427Z,98218.22
2022-09-15T19:21:28.690Z,98218.06
2022-09-15T19:23:59.991Z,98221.94
2022-09-15T19:26:29.747Z,98219.25
2022-09-15T19:28:58.344Z,98228.94
2022-09-15T19:31:28.126Z,98227.28
2022-09-15T19:33:58.512Z,98233.63
2022-09-15T19:36:28.765Z,98219.03
2022-09-15T19:38:58.669Z,98223.22
2022-09-15T19:41:27.889Z,98223.56
2022-09-15T19:43:55.910Z,98233.44
2022-09-15T19:46:29.270Z,98237.28
2022-09-15T19:48:59.356Z,98245.88
2022-09-15T19:51:28.880Z,98244.09
2022-09-15T19:53:57.351Z,98233.78
2022-09-15T19:56:27.254Z,98249.19
2022-09-15T19:58:57.269Z,98238.63
2022-09-15T20:01:27.527Z,98246.16
2022-09-15T20:03:57.219Z,98249.00
2022-09-15T20:06:32.256Z,98259.06
2022-09-15T20:09:00.992Z,98235.53
2022-09-15T20:11:31.787Z,98258.53
2022-09-15T20:14:01.802Z,98272.09
2022-09-15T20:16:30.386Z,98268.75
2022-09-15T20:19:02.588Z,98261.38
2022-09-15T20:21:50.715Z,98252.31
2022-09-15T20:24:20.123Z,98252.34
2022-09-15T20:26:49.279Z,98260.06
2022-09-15T20:29:20.003Z,98265.41
2022-09-15T20:31:48.231Z,98263.53
2022-09-15T20:34:16.388Z,98256.03
2022-09-15T20:36:46.104Z,98261.19
2022-09-15T20:39:16.357Z,98261.03
2022-09-15T20:41:47.316Z,98271.28
2022-09-15T20:44:16.273Z,98263.72
2022-09-15T20:46:44.992Z,98272.09
2022-09-15T20:49:17.742Z,98272.25
2022-09-15T20:51:57.154Z,98269.72
2022-09-15T20:54:27.270Z,98263.22
2022-09-15T20:56:55.541Z,98267.53
2022-09-15T20:59:24.162Z,98256.66
2022-09-15T21:01:52.114Z,98268.75
2022-09-15T21:04:21.167Z,98255.69
2022-09-15T21:06:50.495Z,98254.81
2022-09-15T21:09:18.788Z,98256.34
2022-09-15T21:11:51.361Z,98262.22
2022-09-15T21:14:21.295Z,98265.41
2022-09-15T21:16:49.240Z,98269.38
2022-09-15T21:19:17.467Z,98260.19
2022-09-15T21:21:45.674Z,98271.22
2022-09-15T21:24:15.140Z,98272.59
2022-09-15T21:26:57.553Z,98262.66
2022-09-15T21:29:26.480Z,98282.13
2022-09-15T21:31:55.814Z,98285.34
2022-09-15T21:34:24.017Z,98287.69
2022-09-15T21:36:53.635Z,98286.34
2022-09-15T21:39:23.075Z,98278.44
2022-09-15T21:41:51.258Z,98278.94
2022-09-15T21:44:19.285Z,98291.00
2022-09-15T21:46:48.452Z,98289.97
2022-09-15T21:49:18.122Z,98288.00
2022-09-15T21:51:46.159Z,98284.28
2022-09-15T21:54:14.881Z,98295.38
2022-09-15T21:56:45.265Z,98305.75
2022-09-15T21:59:13.361Z,98302.75
2022-09-15T22:01:42.258Z,98302.72
2022-09-15T22:04:11.126Z,98296.69
2022-09-15T22:06:41.293Z,98301.56
2022-09-15T22:09:12.489Z,98299.75
2022-09-15T22:11:40.516Z,98301.94
2022-09-15T22:14:10.600Z,98295.72
2022-09-15T22:16:40.679Z,98292.81
2022-09-15T22:19:10.424Z,98291.34
2022-09-15T22:21:41.892Z,98291.38
2022-09-15T22:24:12.015Z,98288.69
2022-09-15T22:26:40.459Z,98281.13
2022-09-15T22:29:09.847Z,98293.53
2022-09-15T22:31:37.962Z,98292.84
2022-09-15T22:34:06.421Z,98293.72
2022-09-15T22:36:34.723Z,98293.56
2022-09-15T22:39:05.567Z,98298.41
2022-09-15T22:41:35.261Z,98296.22
2022-09-15T22:44:04.137Z,98299.56
2022-09-15T22:46:33.973Z,98295.03
2022-09-15T22:49:01.940Z,98288.84
2022-09-15T22:51:30.199Z,98287.50
2022-09-15T22:53:58.570Z,98289.50
2022-09-15T22:56:27.162Z,98296.16
2022-09-15T22:58:56.554Z,98285.78
2022-09-15T23:01:26.506Z,98289.78
2022-09-15T23:03:57.620Z,98282.28
2022-09-15T23:06:27.010Z,98278.91
2022-09-15T23:08:56.333Z,98282.97
2022-09-15T23:11:24.982Z,98284.47
2022-09-15T23:13:53.708Z,98280.13
2022-09-15T23:16:22.156Z,98278.44
2022-09-15T23:18:51.107Z,98274.59
2022-09-15T23:21:20.776Z,98276.13
2022-09-15T23:23:49.355Z,98279.13
2022-09-15T23:26:19.530Z,98266.56
2022-09-15T23:28:49.248Z,98270.75
2022-09-15T23:31:17.735Z,98265.72
2022-09-15T23:33:45.740Z,98270.06
2022-09-15T23:36:15.975Z,98276.13
2022-09-15T23:38:46.968Z,98282.47
2022-09-15T23:41:16.096Z,98280.81
2022-09-15T23:43:44.197Z,98277.75
2022-09-15T23:46:12.482Z,98278.63
2022-09-15T23:48:40.600Z,98273.56
2022-09-15T23:51:08.927Z,98273.06
2022-09-15T23:53:36.984Z,98281.59
2022-09-15T23:56:06.709Z,98274.94
2022-09-15T23:58:34.779Z,98271.03
